Time;durP1;ratioP1;P1;durP2;ratioP2;P2;SDS_P1;SDS_P2;PMS_P1;PMS_P2;Temp;Humidity;BMP_temperature;BMP_pressure;BME280_temperature;BME280_humidity;BME280_pressure;Samples;Min_cycle;Max_cycle;Signal;HPM_P1;HPM_P2
2023/01/18 00:00:51;;;;;;;1.00;0.90;;;-1.10;99.90;;;;;;5007161;28;20233;-66
2023/01/18 00:03:18;;;;;;;1.85;1.17;;;-1.10;99.90;;;;;;5023713;28;20071;-67
2023/01/18 00:05:44;;;;;;;1.52;0.95;;;-1.20;99.90;;;;;;5021818;28;20045;-67
2023/01/18 00:08:18;;;;;;;;;;;-1.20;99.90;;;;;;5022957;28;20371;-66
2023/01/18 00:10:45;;;;;;;1.23;0.90;;;-1.20;99.90;;;;;;5024146;28;20078;-65
2023/01/18 00:13:12;;;;;;;0.82;0.80;;;-1.20;99.90;;;;;;5025321;28;20044;-67
2023/01/18 00:15:38;;;;;;;0.60;0.60;;;-1.20;99.90;;;;;;5026122;28;20041;-67
2023/01/18 00:18:06;;;;;;;;;;;-1.20;99.90;;;;;;5023721;28;20048;-65
2023/01/18 00:20:32;;;;;;;1.85;1.20;;;-1.20;99.90;;;;;;5022938;28;20419;-67
2023/01/18 00:23:00;;;;;;;;;;;-1.10;99.90;;;;;;5025108;28;20140;-66
2023/01/18 00:25:27;;;;;;;;;;;-1.10;99.90;;;;;;5024636;28;20006;-67
2023/01/18 00:27:54;;;;;;;1.15;1.02;;;-1.00;99.90;;;;;;5021131;28;19928;-66
2023/01/18 00:30:24;;;;;;;2.38;1.30;;;-1.00;99.90;;;;;;5023851;28;20040;-65
2023/01/18 00:32:56;;;;;;;4.55;1.33;;;-1.00;99.90;;;;;;5019516;28;20149;-67
2023/01/18 00:35:24;;;;;;;1.52;0.95;;;-0.90;99.90;;;;;;5024395;28;20168;-66
2023/01/18 00:37:52;;;;;;;2.60;1.33;;;-0.90;99.90;;;;;;5022383;28;20069;-66
2023/01/18 00:40:20;;;;;;;1.52;0.85;;;-0.90;99.90;;;;;;5022063;28;20051;-66
2023/01/18 00:45:33;;;;;;;1.40;1.15;;;-0.90;99.90;;;;;;5022680;28;20055;-66
2023/01/18 00:48:01;;;;;;;1.63;1.10;;;-0.80;99.90;;;;;;5019263;28;20051;-67
2023/01/18 00:50:28;;;;;;;5.40;1.60;;;-0.80;99.90;;;;;;5021030;28;20041;-66
2023/01/18 00:52:57;;;;;;;1.42;1.30;;;-0.80;99.90;;;;;;5023770;28;20040;-67
2023/01/18 00:55:25;;;;;;;1.45;1.00;;;-0.80;99.90;;;;;;5021835;28;20201;-67
2023/01/18 00:57:51;;;;;;;1.70;1.35;;;-0.80;99.90;;;;;;5020511;28;20131;-68
2023/01/18 01:00:19;;;;;;;;;;;-0.70;99.90;;;;;;5023551;28;20040;-72
2023/01/18 01:02:45;;;;;;;1.42;1.30;;;-0.70;99.90;;;;;;5018735;28;20164;-66
2023/01/18 01:08:16;;;;;;;2.17;1.08;;;-0.70;99.90;;;;;;5020259;28;20148;-65
2023/01/18 01:10:47;;;;;;;1.58;0.93;;;-0.70;99.90;;;;;;5025680;28;20040;-67
2023/01/18 01:27:10;;;;;;;1.30;1.00;;;-0.50;99.90;;;;;;5025969;28;20175;-66
2023/01/18 01:29:38;;;;;;;3.20;1.10;;;-0.40;99.90;;;;;;5023958;28;20041;-65
2023/01/18 01:32:05;;;;;;;2.13;1.45;;;-0.40;99.90;;;;;;5025611;28;20428;-65
2023/01/18 01:34:32;;;;;;;1.95;1.05;;;-0.40;99.90;;;;;;5025545;28;20118;-64
2023/01/18 01:36:59;;;;;;;1.85;1.15;;;-0.40;99.90;;;;;;5022783;28;20032;-64
2023/01/18 01:39:25;;;;;;;1.48;1.13;;;-0.30;99.90;;;;;;5026743;28;20052;-65
2023/01/18 01:41:52;;;;;;;;;;;-0.30;99.90;;;;;;5024397;28;20128;-66
2023/01/18 01:44:19;;;;;;;2.03;1.07;;;-0.30;99.90;;;;;;5023070;28;20449;-66
2023/01/18 01:46:49;;;;;;;1.63;1.10;;;-0.30;99.90;;;;;;5024333;28;20495;-67
2023/01/18 01:49:25;;;;;;;9.57;2.88;;;-0.30;99.90;;;;;;5024541;28;20309;-66
2023/01/18 01:51:57;;;;;;;4.78;1.42;;;-0.30;99.90;;;;;;5025915;28;20341;-67
2023/01/18 01:54:33;;;;;;;1.17;1.02;;;-0.20;99.90;;;;;;5023439;28;20123;-65
2023/01/18 01:57:09;;;;;;;1.98;0.90;;;-0.20;99.90;;;;;;5024345;28;20064;-67
2023/01/18 01:59:42;;;;;;;2.75;1.30;;;-0.20;99.90;;;;;;5023394;28;20323;-65
2023/01/18 02:02:10;;;;;;;0.80;0.80;;;-0.10;99.90;;;;;;5022339;28;20041;-65
2023/01/18 02:04:45;;;;;;;0.75;0.75;;;-0.10;99.90;;;;;;5023293;28;20052;-65
2023/01/18 02:07:12;;;;;;;1.40;0.73;;;-0.10;99.90;;;;;;5021319;28;20156;-67
2023/01/18 02:09:39;;;;;;;1.10;1.00;;;-0.10;99.90;;;;;;5025723;28;20064;-67
2023/01/18 02:12:06;;;;;;;2.55;0.90;;;-0.10;99.90;;;;;;5025738;28;20212;-65
2023/01/18 02:14:34;;;;;;;5.13;1.35;;;0.00;99.90;;;;;;5022514;28;20739;-67
2023/01/18 02:17:34;;;;;;;2.58;1.23;;;0.00;99.90;;;;;;5022057;28;20032;-66
2023/01/18 02:20:33;;;;;;;1.63;1.20;;;0.00;99.90;;;;;;5020393;28;20553;-66
2023/01/18 02:23:38;;;;;;;2.60;1.10;;;0.00;99.90;;;;;;5023520;28;20076;-66
2023/01/18 02:26:32;;;;;;;1.40;1.08;;;0.00;99.90;;;;;;5007773;28;20441;-67
2023/01/18 02:29:13;;;;;;;2.42;1.45;;;0.00;99.90;;;;;;5025889;28;20411;-65
2023/01/18 02:32:19;;;;;;;2.15;1.65;;;0.00;99.90;;;;;;5022056;28;20131;-66
2023/01/18 02:34:56;;;;;;;6.63;2.38;;;0.00;99.90;;;;;;5019913;28;20752;-68
2023/01/18 02:37:35;;;;;;;4.55;2.10;;;0.00;99.90;;;;;;5020715;28;20314;-67
2023/01/18 02:40:15;;;;;;;4.53;2.00;;;0.00;99.90;;;;;;5014598;28;20326;-64
2023/01/18 02:48:30;;;;;;;3.40;2.03;;;0.00;99.90;;;;;;5023915;28;20731;-66
2023/01/18 02:50:56;;;;;;;3.42;2.40;;;0.00;99.90;;;;;;5021323;28;20439;-67
2023/01/18 02:53:23;;;;;;;;;;;0.00;99.90;;;;;;5021513;28;20033;-67
2023/01/18 02:55:55;;;;;;;3.95;2.20;;;0.00;99.90;;;;;;5021566;28;19925;-66
2023/01/18 02:58:36;;;;;;;3.15;2.45;;;0.00;99.90;;;;;;5018923;28;20424;-68
2023/01/18 03:01:35;;;;;;;2.60;2.10;;;0.00;99.90;;;;;;5023483;28;20507;-67
2023/01/18 03:04:14;;;;;;;3.47;2.17;;;0.00;99.90;;;;;;5015805;28;20055;-71
2023/01/18 03:06:45;;;;;;;5.88;2.33;;;-0.10;99.90;;;;;;5022334;28;20040;-67
2023/01/18 03:09:20;;;;;;;2.83;2.30;;;-0.10;99.90;;;;;;5020633;28;20727;-66
2023/01/18 03:11:46;;;;;;;3.40;2.05;;;-0.10;99.90;;;;;;5019255;28;20384;-65
2023/01/18 03:14:16;;;;;;;;;;;-0.10;99.90;;;;;;5022761;28;20041;-66
2023/01/18 03:16:57;;;;;;;3.05;1.73;;;-0.10;99.90;;;;;;5022574;28;19924;-66
2023/01/18 03:20:07;;;;;;;1.45;1.35;;;-0.10;99.90;;;;;;5021522;28;20033;-67
2023/01/18 03:25:42;;;;;;;2.25;1.30;;;-0.10;99.90;;;;;;5023115;28;20124;-68
2023/01/18 03:34:24;;;;;;;1.45;1.35;;;0.00;99.90;;;;;;5018427;28;20045;-67
2023/01/18 03:36:52;;;;;;;1.52;1.25;;;0.00;99.90;;;;;;5018271;28;20044;-68
2023/01/18 03:39:29;;;;;;;2.25;0.90;;;0.10;99.90;;;;;;5024837;28;20306;-68
2023/01/18 03:42:07;;;;;;;2.03;1.40;;;0.10;99.90;;;;;;5020282;28;20390;-65
2023/01/18 03:44:38;;;;;;;2.60;1.15;;;0.10;99.90;;;;;;5019537;28;20049;-68
2023/01/18 03:47:06;;;;;;;6.95;1.60;;;0.10;99.90;;;;;;5018897;28;20036;-68
2023/01/18 03:49:33;;;;;;;2.72;1.27;;;0.20;99.90;;;;;;5019878;28;20908;-68
2023/01/18 03:52:08;;;;;;;5.75;1.10;;;0.20;99.90;;;;;;5017571;28;20049;-68
2023/01/18 03:54:40;;;;;;;0.85;0.85;;;0.30;99.90;;;;;;5023334;28;20072;-68
2023/01/18 03:57:20;;;;;;;1.00;0.90;;;0.30;99.90;;;;;;5017377;28;20033;-68
2023/01/18 03:59:47;;;;;;;1.80;0.95;;;0.30;99.90;;;;;;5023049;28;20328;-67
2023/01/18 04:02:16;;;;;;;1.73;1.15;;;0.40;99.90;;;;;;5017559;28;20045;-66
2023/01/18 04:04:43;;;;;;;2.95;1.50;;;0.40;99.90;;;;;;5018873;28;20135;-66
2023/01/18 04:07:10;;;;;;;1.05;1.00;;;0.40;99.90;;;;;;5021394;28;20045;-67
2023/01/18 04:09:37;;;;;;;2.22;1.52;;;0.40;99.90;;;;;;5023155;28;20313;-67
2023/01/18 04:12:03;;;;;;;;;;;0.40;99.90;;;;;;5023242;28;20041;-65
2023/01/18 04:14:30;;;;;;;1.25;1.15;;;0.40;99.90;;;;;;5021057;28;20395;-67
2023/01/18 04:16:57;;;;;;;;;;;0.40;99.90;;;;;;5020734;28;20051;-66
2023/01/18 04:19:24;;;;;;;2.00;1.30;;;0.40;99.90;;;;;;5021197;28;20380;-67
2023/01/18 04:21:50;;;;;;;4.70;1.42;;;0.40;99.90;;;;;;5020321;28;20052;-66
2023/01/18 04:24:17;;;;;;;;;;;0.40;99.90;;;;;;5024667;28;20051;-68
2023/01/18 04:26:44;;;;;;;3.92;1.50;;;0.40;99.90;;;;;;5022255;28;20016;-68
2023/01/18 04:29:11;;;;;;;;;;;0.30;99.90;;;;;;5021234;28;20423;-67
2023/01/18 04:31:38;;;;;;;2.90;1.70;;;0.40;99.90;;;;;;5021109;28;20250;-64
2023/01/18 04:34:04;;;;;;;2.22;1.35;;;0.30;99.90;;;;;;5019317;28;20496;-67
2023/01/18 04:36:31;;;;;;;3.03;1.48;;;0.30;99.90;;;;;;5020888;28;20039;-67
2023/01/18 04:38:58;;;;;;;;;;;0.30;99.90;;;;;;5021267;28;20225;-68
2023/01/18 04:41:25;;;;;;;2.55;1.40;;;0.40;99.90;;;;;;5021298;28;19968;-66
2023/01/18 04:43:52;;;;;;;1.23;1.13;;;0.40;99.90;;;;;;5028029;28;20701;-67
2023/01/18 04:46:18;;;;;;;2.58;1.02;;;0.40;99.90;;;;;;5024095;28;20161;-66
2023/01/18 04:48:50;;;;;;;2.67;1.58;;;0.40;99.90;;;;;;5021408;28;20064;-67
2023/01/18 04:51:17;;;;;;;1.58;1.10;;;0.30;99.90;;;;;;5025674;28;20122;-68
2023/01/18 04:53:45;;;;;;;4.50;1.45;;;0.30;99.90;;;;;;5023915;28;20047;-68
2023/01/18 04:56:12;;;;;;;3.78;1.38;;;0.30;99.90;;;;;;5023730;28;20498;-67
2023/01/18 04:58:38;;;;;;;;;;;0.30;99.90;;;;;;5027068;28;20040;-68
2023/01/18 05:01:07;;;;;;;1.95;1.17;;;0.30;99.90;;;;;;5024466;28;20120;-68
2023/01/18 05:03:37;;;;;;;1.02;1.00;;;0.40;99.90;;;;;;5025038;28;20137;-68
2023/01/18 05:06:09;;;;;;;5.13;1.27;;;0.40;99.90;;;;;;5023425;28;20542;-68
2023/01/18 05:08:39;;;;;;;2.58;1.20;;;0.30;99.90;;;;;;5022219;28;20523;-67
2023/01/18 05:11:11;;;;;;;2.25;1.20;;;0.40;99.90;;;;;;5022843;28;20153;-67
2023/01/18 05:13:39;;;;;;;1.98;1.15;;;0.30;99.90;;;;;;5023950;28;20041;-67
2023/01/18 05:16:11;;;;;;;1.13;0.80;;;0.30;99.90;;;;;;5023236;28;20048;-67
2023/01/18 05:18:38;;;;;;;1.33;0.85;;;0.30;99.90;;;;;;5021572;28;20116;-67
2023/01/18 05:21:05;;;;;;;;;;;0.30;99.90;;;;;;5022694;28;20059;-68
2023/01/18 05:23:31;;;;;;;1.30;1.00;;;0.30;99.90;;;;;;5022369;28;20019;-68
2023/01/18 05:25:58;;;;;;;1.27;1.17;;;0.40;99.90;;;;;;5021898;28;20040;-67
2023/01/18 05:28:26;;;;;;;;;;;0.40;99.90;;;;;;5025466;28;20581;-66
2023/01/18 05:30:54;;;;;;;2.63;1.10;;;0.40;99.90;;;;;;5023843;28;21638;-67
2023/01/18 05:33:21;;;;;;;3.85;1.05;;;0.40;99.90;;;;;;5026142;28;20142;-67
2023/01/18 05:35:53;;;;;;;1.10;1.00;;;0.40;99.90;;;;;;5023524;28;20623;-68
2023/01/18 05:38:22;;;;;;;1.40;1.30;;;0.40;99.90;;;;;;5031161;28;20032;-67
2023/01/18 05:40:51;;;;;;;1.20;0.90;;;0.40;99.90;;;;;;5022759;28;20048;-66
2023/01/18 05:43:19;;;;;;;0.98;0.88;;;0.50;99.90;;;;;;5022925;28;20044;-67
2023/01/18 05:45:46;;;;;;;1.48;0.95;;;0.50;99.90;;;;;;5022510;28;20370;-67
2023/01/18 05:48:13;;;;;;;3.30;1.10;;;0.50;99.90;;;;;;5023418;28;20554;-67
2023/01/18 05:50:42;;;;;;;1.10;1.00;;;0.50;99.90;;;;;;5023667;28;20740;-67
2023/01/18 05:53:14;;;;;;;2.33;0.90;;;0.50;99.90;;;;;;5024097;28;20322;-67
2023/01/18 05:55:41;;;;;;;3.38;1.00;;;0.50;99.90;;;;;;5023392;28;20048;-67
2023/01/18 05:58:08;;;;;;;1.30;1.08;;;0.50;99.90;;;;;;5026032;28;20036;-67
2023/01/18 06:00:35;;;;;;;1.80;1.00;;;0.50;99.90;;;;;;5022421;28;20109;-67
2023/01/18 06:03:02;;;;;;;3.28;1.15;;;0.60;99.90;;;;;;5021234;28;20487;-65
2023/01/18 06:05:28;;;;;;;1.55;1.17;;;0.50;99.90;;;;;;5026377;28;20049;-67
2023/01/18 06:07:55;;;;;;;;;;;0.50;99.90;;;;;;5021528;28;20472;-66
2023/01/18 06:10:22;;;;;;;1.58;0.85;;;0.50;99.90;;;;;;5022937;28;20072;-68
2023/01/18 06:12:49;;;;;;;2.60;1.00;;;0.50;99.90;;;;;;5033449;28;20397;-66
2023/01/18 06:15:16;;;;;;;1.15;1.00;;;0.50;99.90;;;;;;5025067;28;20040;-67
2023/01/18 06:17:44;;;;;;;;;;;0.50;99.90;;;;;;5023829;28;20037;-66
2023/01/18 06:20:12;;;;;;;2.30;0.90;;;0.50;99.90;;;;;;5025961;28;20217;-66
2023/01/18 06:22:39;;;;;;;2.65;1.35;;;0.50;99.90;;;;;;5024660;28;20051;-67
2023/01/18 06:25:08;;;;;;;3.00;1.00;;;0.50;99.90;;;;;;5031488;28;20163;-67
2023/01/18 06:27:36;;;;;;;3.03;1.00;;;0.50;99.90;;;;;;5023297;28;20106;-65
2023/01/18 06:30:05;;;;;;;0.50;0.50;;;0.50;99.90;;;;;;5032866;28;20409;-68
2023/01/18 06:32:32;;;;;;;4.90;1.23;;;0.50;99.90;;;;;;5025187;28;20567;-70
2023/01/18 06:34:59;;;;;;;4.18;1.60;;;0.50;99.90;;;;;;5025399;28;20404;-68
2023/01/18 06:37:25;;;;;;;;;;;0.50;99.90;;;;;;5025474;28;20110;-69
2023/01/18 06:39:52;;;;;;;2.75;1.15;;;0.50;99.90;;;;;;5022901;28;19924;-68
2023/01/18 06:42:19;;;;;;;;;;;0.50;99.90;;;;;;5023127;28;20120;-67
2023/01/18 06:44:45;;;;;;;1.58;1.10;;;0.50;99.90;;;;;;5022683;28;20278;-68
2023/01/18 06:47:17;;;;;;;;;;;0.50;99.90;;;;;;5025438;28;20602;-69
2023/01/18 06:49:47;;;;;;;3.10;1.42;;;0.50;99.90;;;;;;5024395;28;20222;-70
2023/01/18 06:52:15;;;;;;;2.88;1.50;;;0.50;99.90;;;;;;5025877;28;20345;-69
2023/01/18 06:54:43;;;;;;;2.75;2.08;;;0.50;99.90;;;;;;5021338;28;20222;-69
2023/01/18 06:57:11;;;;;;;3.60;2.03;;;0.60;99.90;;;;;;5030849;28;20044;-58
2023/01/18 06:59:38;;;;;;;4.82;1.92;;;0.60;99.90;;;;;;5023778;28;20173;-57
2023/01/18 07:02:05;;;;;;;3.38;2.25;;;0.60;99.90;;;;;;5025347;28;20123;-56
2023/01/18 07:04:36;;;;;;;3.80;2.13;;;0.60;99.90;;;;;;5025218;28;20496;-57
2023/01/18 07:07:03;;;;;;;3.30;2.08;;;0.60;99.90;;;;;;5029435;28;20147;-55
2023/01/18 07:09:30;;;;;;;;;;;0.60;99.90;;;;;;5023463;28;20583;-55
2023/01/18 07:11:56;;;;;;;2.47;1.70;;;0.60;99.90;;;;;;5020727;28;19925;-56
2023/01/18 07:14:23;;;;;;;3.00;2.28;;;0.60;99.90;;;;;;5025064;28;20068;-56
2023/01/18 07:16:50;;;;;;;4.32;2.65;;;0.50;99.90;;;;;;5022235;28;20060;-57
2023/01/18 07:19:16;;;;;;;2.28;1.70;;;0.50;99.90;;;;;;5024365;28;20075;-56
2023/01/18 07:21:43;;;;;;;7.15;2.00;;;0.50;99.90;;;;;;5023059;28;20147;-56
2023/01/18 07:24:10;;;;;;;1.80;1.60;;;0.50;99.90;;;;;;5018186;28;21249;-54
2023/01/18 07:26:36;;;;;;;;;;;0.50;99.90;;;;;;5022810;28;20503;-55
2023/01/18 07:29:03;;;;;;;4.03;2.00;;;0.50;99.90;;;;;;5020634;28;20029;-58
2023/01/18 07:31:30;;;;;;;;;;;0.50;99.90;;;;;;5025176;28;20048;-56
2023/01/18 07:33:57;;;;;;;4.67;2.80;;;0.50;99.90;;;;;;5021606;28;19924;-56
2023/01/18 07:36:24;;;;;;;;;;;0.50;99.90;;;;;;5022098;28;20140;-58
2023/01/18 07:38:51;;;;;;;3.63;2.30;;;0.50;99.90;;;;;;5029880;28;19932;-55
2023/01/18 07:41:18;;;;;;;2.42;1.85;;;0.50;99.90;;;;;;5022542;28;20507;-57
2023/01/18 07:43:45;;;;;;;2.90;1.90;;;0.50;99.90;;;;;;5023750;28;20055;-55
2023/01/18 07:46:15;;;;;;;1.83;1.58;;;0.50;99.90;;;;;;5022737;28;20139;-56
2023/01/18 07:48:43;;;;;;;2.30;2.00;;;0.50;99.90;;;;;;5022274;28;20044;-57
2023/01/18 07:51:10;;;;;;;2.45;1.75;;;0.60;99.90;;;;;;5020488;28;20401;-57
2023/01/18 07:53:38;;;;;;;1.95;1.42;;;0.60;99.90;;;;;;5021466;28;20106;-56
2023/01/18 07:56:24;;;;;;;3.88;1.73;;;0.60;99.90;;;;;;5020293;28;20090;-54
2023/01/18 07:58:52;;;;;;;4.28;2.05;;;0.60;99.90;;;;;;5019099;28;20756;-55
2023/01/18 08:01:21;;;;;;;2.33;1.67;;;0.70;99.90;;;;;;5021921;28;20998;-57
2023/01/18 08:03:49;;;;;;;1.92;1.65;;;0.70;99.90;;;;;;5020924;28;20053;-54
2023/01/18 08:06:21;;;;;;;1.70;1.60;;;0.80;99.90;;;;;;5020798;28;20044;-55
2023/01/18 08:08:47;;;;;;;2.55;1.63;;;0.80;99.90;;;;;;5020057;28;20144;-54
2023/01/18 08:11:14;;;;;;;;;;;0.90;99.90;;;;;;5021468;28;20665;-52
2023/01/18 08:13:41;;;;;;;2.38;2.15;;;1.00;99.90;;;;;;5022701;28;19928;-53
2023/01/18 08:16:10;;;;;;;5.85;1.95;;;1.10;99.90;;;;;;5021891;28;20317;-53
2023/01/18 08:18:37;;;;;;;4.78;2.25;;;1.20;99.90;;;;;;5019512;28;20044;-53
2023/01/18 08:21:07;;;;;;;2.63;1.75;;;1.20;99.90;;;;;;5020031;28;20499;-51
2023/01/18 08:23:33;;;;;;;2.30;1.55;;;1.30;99.90;;;;;;5020162;28;20052;-55
2023/01/18 08:26:01;;;;;;;;;;;1.30;99.90;;;;;;5021352;28;20055;-54
2023/01/18 08:28:28;;;;;;;2.35;1.90;;;1.40;99.90;;;;;;5022147;28;19924;-55
2023/01/18 08:31:03;;;;;;;;;;;1.40;99.90;;;;;;5021559;28;20045;-53
2023/01/18 08:33:30;;;;;;;3.53;2.17;;;1.40;99.90;;;;;;5020024;28;19932;-53
2023/01/18 08:35:57;;;;;;;;;;;1.40;99.90;;;;;;5023034;28;20037;-53
2023/01/18 08:38:23;;;;;;;3.38;2.70;;;1.40;99.90;;;;;;5024145;28;19932;-53
2023/01/18 08:40:50;;;;;;;4.72;2.40;;;1.40;99.90;;;;;;5023747;28;20036;-53
2023/01/18 08:43:17;;;;;;;;;;;1.40;99.90;;;;;;5020430;28;20584;-53
2023/01/18 08:45:49;;;;;;;4.25;2.78;;;1.30;99.90;;;;;;5023876;28;20019;-51
2023/01/18 08:48:15;;;;;;;3.55;2.78;;;1.30;99.90;;;;;;5021749;28;20293;-54
2023/01/18 08:50:44;;;;;;;3.17;2.60;;;1.20;99.90;;;;;;5023415;28;20466;-53
2023/01/18 08:53:12;;;;;;;2.50;2.30;;;1.10;99.90;;;;;;5021408;28;20040;-52
2023/01/18 08:55:39;;;;;;;2.03;1.80;;;1.10;99.90;;;;;;5022012;28;20191;-52
2023/01/18 08:58:06;;;;;;;2.80;2.50;;;1.00;99.90;;;;;;5005131;28;20132;-54
2023/01/18 09:00:33;;;;;;;2.45;2.25;;;0.90;99.90;;;;;;5021901;28;20111;-55
2023/01/18 09:03:01;;;;;;;;;;;0.90;99.90;;;;;;5022677;28;20372;-54
2023/01/18 09:05:28;;;;;;;2.72;2.20;;;0.90;99.90;;;;;;5020377;28;19981;-53
2023/01/18 09:07:56;;;;;;;2.45;2.25;;;0.90;99.90;;;;;;5020483;28;20192;-56
2023/01/18 09:10:23;;;;;;;2.10;1.90;;;0.80;99.90;;;;;;5020269;28;20137;-53
2023/01/18 09:12:50;;;;;;;;;;;0.80;99.90;;;;;;5021504;28;20136;-54
2023/01/18 09:15:19;;;;;;;2.95;2.38;;;0.80;99.90;;;;;;5022817;28;19959;-54
2023/01/18 09:17:46;;;;;;;;;;;0.80;99.90;;;;;;5020827;28;20482;-59
2023/01/18 09:20:12;;;;;;;3.72;2.90;;;0.80;99.90;;;;;;5022322;28;20313;-51
2023/01/18 09:22:41;;;;;;;3.47;2.50;;;0.70;99.90;;;;;;5022983;28;20551;-52
2023/01/18 09:25:09;;;;;;;4.10;3.05;;;0.70;99.90;;;;;;5020153;28;20545;-52
2023/01/18 09:27:36;;;;;;;3.42;2.92;;;0.70;99.90;;;;;;5020932;28;20051;-55
2023/01/18 09:30:03;;;;;;;;;;;0.70;99.90;;;;;;5022763;28;20064;-52
2023/01/18 09:32:30;;;;;;;1.73;1.55;;;0.70;99.90;;;;;;5024819;28;20015;-53
2023/01/18 09:34:56;;;;;;;;;;;0.70;99.90;;;;;;5026076;28;20123;-53
2023/01/18 09:37:23;;;;;;;2.58;2.38;;;0.70;99.90;;;;;;5023936;28;20160;-52
2023/01/18 09:39:50;;;;;;;3.08;2.78;;;0.70;99.90;;;;;;5025449;28;20037;-53
2023/01/18 09:42:26;;;;;;;3.80;2.50;;;0.70;99.90;;;;;;5027604;28;20048;-53
2023/01/18 09:45:00;;;;;;;3.60;2.17;;;0.70;99.90;;;;;;5023419;28;20060;-52
2023/01/18 09:47:35;;;;;;;1.90;1.65;;;0.70;99.90;;;;;;5026783;28;20507;-50
2023/01/18 09:50:13;;;;;;;2.35;1.98;;;0.70;99.90;;;;;;5027913;28;20119;-52
2023/01/18 09:52:55;;;;;;;2.75;2.00;;;0.60;99.90;;;;;;5024123;28;20461;-54
2023/01/18 09:55:32;;;;;;;1.88;1.77;;;0.60;99.90;;;;;;5032472;28;20507;-54
2023/01/18 09:58:36;;;;;;;2.10;1.90;;;0.60;99.90;;;;;;5025613;28;20145;-56
2023/01/18 10:01:23;;;;;;;4.40;2.33;;;0.60;99.90;;;;;;5024821;28;20075;-55
2023/01/18 10:03:58;;;;;;;2.50;1.98;;;0.70;99.90;;;;;;5025257;28;20542;-55
2023/01/18 10:06:36;;;;;;;2.10;1.85;;;0.60;99.90;;;;;;5023706;28;20566;-54
2023/01/18 10:09:05;;;;;;;;;;;0.60;99.90;;;;;;5024901;28;20273;-53
2023/01/18 10:12:00;;;;;;;1.73;1.63;;;0.60;99.90;;;;;;5022346;28;19931;-55
2023/01/18 10:14:46;;;;;;;1.50;1.40;;;0.60;99.90;;;;;;5023673;28;20409;-53
2023/01/18 10:17:20;;;;;;;1.63;1.52;;;0.70;99.90;;;;;;5031129;28;20290;-54
2023/01/18 10:19:47;;;;;;;1.52;1.42;;;0.70;99.90;;;;;;5024917;28;20048;-55
2023/01/18 10:22:32;;;;;;;1.60;1.50;;;0.80;99.90;;;;;;5021641;28;20537;-53
2023/01/18 10:25:01;;;;;;;1.60;1.42;;;0.90;99.90;;;;;;5024636;28;20128;-54
2023/01/18 10:27:57;;;;;;;1.23;1.15;;;0.90;99.90;;;;;;5020053;28;20144;-54
2023/01/18 10:30:42;;;;;;;1.23;1.13;;;1.00;99.90;;;;;;5028951;28;20067;-54
2023/01/18 10:33:19;;;;;;;1.30;1.20;;;1.00;99.90;;;;;;5024981;28;20127;-54
2023/01/18 10:35:57;;;;;;;1.15;1.13;;;1.10;99.90;;;;;;5022569;28;20044;-54
2023/01/18 10:38:28;;;;;;;1.10;1.00;;;1.10;99.90;;;;;;5024320;28;20462;-55
2023/01/18 10:41:01;;;;;;;2.28;1.30;;;1.10;99.90;;;;;;5023819;28;20127;-53
2023/01/18 10:43:30;;;;;;;1.20;1.10;;;1.10;99.90;;;;;;5019657;28;20052;-55
2023/01/18 10:45:57;;;;;;;1.83;1.67;;;1.00;99.90;;;;;;5024403;28;20056;-55
2023/01/18 10:48:30;;;;;;;1.95;1.70;;;0.90;99.90;;;;;;5025109;28;20340;-55
2023/01/18 10:51:04;;;;;;;2.20;1.83;;;0.90;99.90;;;;;;5022478;28;20594;-55
2023/01/18 10:53:35;;;;;;;2.15;1.95;;;0.80;99.90;;;;;;5021439;28;20511;-55
2023/01/18 10:56:08;;;;;;;2.20;2.00;;;0.80;99.90;;;;;;5023668;28;20061;-53
2023/01/18 10:58:45;;;;;;;1.67;1.58;;;0.80;99.90;;;;;;5021308;28;20564;-53
2023/01/18 11:01:16;;;;;;;1.50;1.40;;;0.70;99.90;;;;;;5031288;28;20037;-55
2023/01/18 11:03:49;;;;;;;2.63;1.83;;;0.70;99.90;;;;;;5023908;28;20529;-53
2023/01/18 11:06:19;;;;;;;2.13;1.83;;;0.60;99.90;;;;;;5022984;28;20112;-54
2023/01/18 11:08:47;;;;;;;1.88;1.63;;;0.60;99.90;;;;;;5020751;28;20052;-54
2023/01/18 11:11:17;;;;;;;3.08;2.28;;;0.60;99.90;;;;;;5021393;28;20241;-53
2023/01/18 11:13:46;;;;;;;2.92;2.20;;;0.60;99.90;;;;;;5022882;28;20663;-52
2023/01/18 11:16:21;;;;;;;2.53;2.33;;;0.60;99.90;;;;;;5024168;28;20512;-54
2023/01/18 11:19:00;;;;;;;5.30;2.78;;;0.60;99.90;;;;;;5021430;28;20378;-52
2023/01/18 11:21:39;;;;;;;2.67;2.47;;;0.60;99.90;;;;;;5022263;28;20234;-54
2023/01/18 11:24:11;;;;;;;2.40;1.95;;;0.70;99.90;;;;;;5021612;28;20044;-53
2023/01/18 11:27:00;;;;;;;2.75;2.17;;;0.70;99.90;;;;;;5003406;28;20049;-54
2023/01/18 11:29:34;;;;;;;1.35;1.25;;;0.70;99.90;;;;;;5024560;28;20059;-54
2023/01/18 11:32:05;;;;;;;1.48;1.35;;;0.80;99.90;;;;;;5018767;28;20033;-54
2023/01/18 11:34:39;;;;;;;2.42;1.75;;;0.70;99.90;;;;;;5021098;28;20279;-53
2023/01/18 11:37:42;;;;;;;2.13;1.60;;;0.80;99.90;;;;;;5020817;28;20095;-55
2023/01/18 11:40:35;;;;;;;2.42;2.03;;;0.80;99.90;;;;;;5021645;28;20080;-55
2023/01/18 11:43:12;;;;;;;2.53;2.10;;;0.90;99.90;;;;;;5018977;28;20084;-55
2023/01/18 11:45:53;;;;;;;2.47;2.20;;;1.00;99.90;;;;;;5020570;28;20546;-56
2023/01/18 11:48:48;;;;;;;2.22;2.00;;;1.10;99.90;;;;;;5022331;28;20041;-54
2023/01/18 11:51:30;;;;;;;2.58;2.38;;;1.20;99.90;;;;;;5020379;28;20049;-55
2023/01/18 11:54:05;;;;;;;2.90;2.40;;;1.20;99.90;;;;;;5023300;28;20037;-54
2023/01/18 11:56:42;;;;;;;3.13;2.83;;;1.20;99.90;;;;;;5022727;28;20045;-53
2023/01/18 11:59:29;;;;;;;7.20;2.90;;;1.20;99.90;;;;;;5022334;28;20198;-54
2023/01/18 12:02:34;;;;;;;5.78;3.88;;;1.20;99.90;;;;;;5020271;28;20041;-55
2023/01/18 12:05:32;;;;;;;6.72;3.88;;;1.20;99.90;;;;;;5019509;28;20267;-55
2023/01/18 12:08:41;;;;;;;5.40;3.50;;;1.20;99.90;;;;;;5019407;28;20346;-55
2023/01/18 12:11:32;;;;;;;11.38;4.25;;;1.20;99.90;;;;;;5020464;28;20724;-52
2023/01/18 12:14:04;;;;;;;9.45;5.38;;;1.10;99.90;;;;;;5020208;28;20098;-53
2023/01/18 12:17:01;;;;;;;7.57;3.97;;;1.00;99.90;;;;;;5021324;28;20044;-53
2023/01/18 12:20:10;;;;;;;7.40;3.75;;;1.00;99.90;;;;;;5029657;28;20049;-55
2023/01/18 12:22:54;;;;;;;7.28;4.90;;;1.00;99.90;;;;;;5018985;28;20222;-52
2023/01/18 12:26:00;;;;;;;5.88;4.38;;;0.90;99.90;;;;;;5022294;28;20657;-55
2023/01/18 12:29:03;;;;;;;4.93;4.40;;;0.90;99.90;;;;;;5005177;28;20059;-54
2023/01/18 12:31:45;;;;;;;5.50;4.47;;;0.90;99.90;;;;;;5022395;28;20064;-55
2023/01/18 12:34:20;;;;;;;5.18;4.68;;;0.90;99.90;;;;;;5021926;28;20045;-56
2023/01/18 12:37:00;;;;;;;7.15;5.32;;;0.90;99.90;;;;;;5020227;28;20052;-55
2023/01/18 12:39:52;;;;;;;6.20;4.45;;;0.90;99.90;;;;;;5021795;28;20053;-55
2023/01/18 12:42:33;;;;;;;7.07;4.32;;;1.00;99.90;;;;;;5023453;28;20140;-54
2023/01/18 12:45:18;;;;;;;7.82;4.60;;;1.00;99.90;;;;;;5036884;28;20045;-55
2023/01/18 12:48:13;;;;;;;6.05;4.78;;;1.10;99.90;;;;;;5020255;28;20359;-52
2023/01/18 12:50:42;;;;;;;4.88;4.25;;;1.20;99.90;;;;;;5021973;28;20119;-54
2023/01/18 12:53:15;;;;;;;7.82;4.55;;;1.20;99.90;;;;;;5024386;28;20056;-52
2023/01/18 12:55:46;;;;;;;7.82;4.82;;;1.20;99.90;;;;;;5019085;28;20051;-54
2023/01/18 12:58:24;;;;;;;7.00;4.78;;;1.10;99.90;;;;;;5020836;28;20343;-55
2023/01/18 13:00:58;;;;;;;7.60;5.13;;;1.10;99.90;;;;;;5037110;28;20048;-54
2023/01/18 13:03:30;;;;;;;12.65;5.82;;;1.00;99.90;;;;;;5017969;28;20259;-53
2023/01/18 13:05:59;;;;;;;8.38;5.22;;;1.00;99.90;;;;;;5025628;28;20301;-54
2023/01/18 13:08:37;;;;;;;8.88;5.53;;;0.90;99.90;;;;;;5025432;28;20088;-55
2023/01/18 13:11:16;;;;;;;6.30;4.40;;;0.90;99.90;;;;;;5023871;28;20135;-53
2023/01/18 13:13:43;;;;;;;6.22;4.65;;;0.90;99.90;;;;;;5023895;28;20040;-54
2023/01/18 13:16:44;;;;;;;13.15;4.88;;;0.90;99.90;;;;;;5021116;28;20040;-60
2023/01/18 13:19:16;;;;;;;5.68;4.60;;;0.80;99.90;;;;;;5023082;28;20036;-51
2023/01/18 13:22:07;;;;;;;7.72;5.07;;;0.80;99.90;;;;;;5021552;28;20807;-51
2023/01/18 13:25:08;;;;;;;8.98;5.68;;;0.70;99.90;;;;;;5025066;28;20068;-50
2023/01/18 13:27:36;;;;;;;8.90;5.35;;;0.70;99.90;;;;;;5023275;28;20193;-51
2023/01/18 13:30:14;;;;;;;9.82;5.43;;;0.70;99.90;;;;;;5022416;28;20099;-51
2023/01/18 13:32:44;;;;;;;6.22;4.93;;;0.70;99.90;;;;;;5014052;28;20041;-52
2023/01/18 13:35:15;;;;;;;8.00;5.53;;;0.70;99.90;;;;;;5024736;28;20313;-51
2023/01/18 13:37:54;;;;;;;5.68;4.72;;;0.80;99.90;;;;;;5022996;28;20475;-50
2023/01/18 13:40:34;;;;;;;6.80;5.05;;;0.80;99.90;;;;;;5023731;28;20037;-53
2023/01/18 13:43:00;;;;;;;7.43;5.60;;;0.80;99.90;;;;;;5026045;28;20052;-52
2023/01/18 13:45:29;;;;;;;8.13;4.88;;;0.80;99.90;;;;;;5026029;28;20418;-51
2023/01/18 13:48:05;;;;;;;6.70;4.88;;;0.80;99.90;;;;;;5023936;28;20044;-48
2023/01/18 13:50:38;;;;;;;6.50;5.10;;;0.80;99.90;;;;;;5024938;28;20052;-53
2023/01/18 13:53:14;;;;;;;8.20;6.13;;;0.70;99.90;;;;;;5023682;28;20045;-49
2023/01/18 13:55:53;;;;;;;9.75;7.40;;;0.70;99.90;;;;;;5023748;28;20087;-52
2023/01/18 13:58:36;;;;;;;11.88;7.05;;;0.70;99.90;;;;;;5023649;28;20124;-53
2023/01/18 14:01:06;;;;;;;8.27;5.72;;;0.70;99.90;;;;;;5022710;28;20136;-52
2023/01/18 14:03:37;;;;;;;7.20;4.95;;;0.70;99.90;;;;;;5021568;28;20669;-52
2023/01/18 14:06:09;;;;;;;8.60;4.78;;;0.60;99.90;;;;;;5021411;28;20502;-49
2023/01/18 14:08:39;;;;;;;7.70;4.90;;;0.60;99.90;;;;;;5022111;28;20530;-52